Time;durP1;ratioP1;P1;durP2;ratioP2;P2;SDS_P1;SDS_P2;PMS_P1;PMS_P2;Temp;Humidity;BMP_temperature;BMP_pressure;BME280_temperature;BME280_humidity;BME280_pressure;Samples;Min_cycle;Max_cycle;Signal;HPM_P1;HPM_P2
2021/01/01 00:00:21;;;;;;;32.53;20.40;;;;;;;-2.00;94.42;94594.50;1031147;28;20038;-74
2021/01/01 00:00:51;;;;;;;37.43;23.90;;;;;;;-2.10;94.38;94584.69;1030912;28;20026;-73
2021/01/01 00:01:22;;;;;;;36.63;22.13;;;;;;;-2.06;94.42;94590.19;1034968;28;20030;-74
2021/01/01 00:01:53;;;;;;;35.17;21.23;;;;;;;-2.02;94.59;94593.91;1030781;28;20031;-74
2021/01/01 00:02:24;;;;;;;33.05;21.13;;;;;;;-1.97;94.54;94596.66;1026900;28;20447;-74
2021/01/01 00:02:54;;;;;;;32.47;19.83;;;;;;;-2.00;94.38;94577.28;1030176;28;20027;-75
2021/01/01 00:03:25;;;;;;;32.47;19.03;;;;;;;-1.80;93.76;94589.94;1032429;28;20141;-73
2021/01/01 00:03:55;;;;;;;34.10;19.43;;;;;;;-1.94;93.70;94575.66;1031020;28;20473;-74
2021/01/01 00:04:26;;;;;;;34.70;19.87;;;;;;;-1.82;93.52;94589.38;1026976;28;20062;-74
2021/01/01 00:04:56;;;;;;;35.17;21.73;;;;;;;-1.92;93.43;94579.56;1028857;28;20042;-71
2021/01/01 00:05:30;;;;;;;35.17;20.97;;;;;;;-1.85;93.41;94592.34;1030629;28;20050;-73
2021/01/01 00:06:00;;;;;;;32.42;21.02;;;;;;;-1.83;93.52;94592.94;1031357;28;20027;-71
2021/01/01 00:06:31;;;;;;;32.60;21.53;;;;;;;-1.79;93.23;94591.50;1034101;28;20518;-75
2021/01/01 00:07:01;;;;;;;35.93;22.07;;;;;;;-1.80;93.19;94587.38;1027180;28;20031;-74
2021/01/01 00:07:32;;;;;;;36.63;22.60;;;;;;;-1.79;93.25;94593.28;1032763;28;20446;-73
2021/01/01 00:08:02;;;;;;;32.50;21.47;;;;;;;-1.79;93.25;94593.28;1036358;28;20025;-73
2021/01/01 00:08:33;;;;;;;52.13;29.37;;;;;;;-1.82;93.07;94594.50;1033558;28;20025;-75
2021/01/01 00:09:04;;;;;;;68.97;35.37;;;;;;;-1.83;93.43;94592.94;1030520;28;20030;-74
2021/01/01 00:09:35;;;;;;;85.93;41.63;;;;;;;-1.75;93.05;94592.66;1025569;28;20023;-72
2021/01/01 00:10:06;;;;;;;108.70;51.63;;;;;;;-1.75;92.99;94589.28;1033889;28;20069;-74
2021/01/01 00:10:37;;;;;;;110.93;52.83;;;;;;;-1.74;92.92;94591.66;1034812;28;20080;-75
2021/01/01 00:11:16;;;;;;;97.53;46.23;;;;;;;-1.73;92.78;94584.72;1035722;28;20092;-73
2021/01/01 00:11:50;;;;;;;62.92;34.63;;;;;;;-1.74;92.94;94578.81;1034908;28;20037;-74
2021/01/01 00:12:20;;;;;;;58.28;31.50;;;;;;;-1.73;92.63;94571.88;1032207;28;20832;-76
2021/01/01 00:12:51;;;;;;;58.37;31.07;;;;;;;-1.71;92.29;94575.81;1028384;28;20034;-72
2021/01/01 00:13:21;;;;;;;43.73;25.13;;;;;;;-1.74;92.43;94571.09;1034774;28;20026;-70
2021/01/01 00:13:52;;;;;;;44.93;27.03;;;;;;;-1.82;92.74;94553.38;1034677;28;20172;-73
2021/01/01 00:14:22;;;;;;;46.57;26.70;;;;;;;-1.91;92.95;94552.09;1027688;28;20596;-70
2021/01/01 00:14:53;;;;;;;45.20;26.17;;;;;;;-1.78;93.14;94576.88;1031018;28;20397;-72
2021/01/01 00:15:23;;;;;;;40.17;23.80;;;;;;;-1.78;92.71;94569.94;1042959;28;20120;-72
2021/01/01 00:15:54;;;;;;;43.53;25.07;;;;;;;-1.93;93.16;94564.38;1037604;28;20071;-73
2021/01/01 00:16:24;;;;;;;40.00;25.60;;;;;;;-1.93;93.57;94562.59;1026052;28;20110;-71
2021/01/01 00:16:55;;;;;;;49.17;29.83;;;;;;;-1.92;93.31;94571.84;1029417;28;20096;-71
2021/01/01 00:17:25;;;;;;;48.00;29.33;;;;;;;-1.96;93.37;94572.50;1034628;28;20030;-73
2021/01/01 00:17:56;;;;;;;42.47;26.30;;;;;;;-2.11;93.33;94554.06;1034326;28;20701;-73
2021/01/01 00:18:26;;;;;;;39.70;24.77;;;;;;;-1.99;93.46;94578.06;1022298;28;20055;-71
2021/01/01 00:18:57;;;;;;;46.43;25.40;;;;;;;-2.04;93.98;94575.38;1022370;28;20031;-72
2021/01/01 00:19:27;;;;;;;45.97;25.83;;;;;;;-2.06;93.77;94579.91;1034543;28;20544;-72
2021/01/01 00:19:58;;;;;;;44.07;26.83;;;;;;;-2.11;93.86;94569.47;1034287;28;20042;-72
2021/01/01 00:20:28;;;;;;;43.80;27.97;;;;;;;-2.19;94.05;94557.69;1022646;29;20570;-72
2021/01/01 00:20:59;;;;;;;46.37;29.50;;;;;;;-2.09;94.13;94575.22;1030615;28;20034;-71
2021/01/01 00:21:29;;;;;;;48.03;30.27;;;;;;;-2.13;94.32;94567.91;1034208;28;20033;-71
2021/01/01 00:22:00;;;;;;;53.77;33.03;;;;;;;-2.17;94.26;94564.22;1025580;28;20035;-72
2021/01/01 00:22:30;;;;;;;56.47;34.27;;;;;;;-2.14;94.53;94576.63;1030027;28;20026;-72
2021/01/01 00:23:01;;;;;;;54.50;34.57;;;;;;;-2.25;94.63;94564.47;1034005;28;20052;-72
2021/01/01 00:23:31;;;;;;;55.03;35.30;;;;;;;-2.22;94.70;94574.31;1030671;28;20061;-72
2021/01/01 00:24:02;;;;;;;53.57;33.70;;;;;;;-2.21;94.63;94575.91;1022943;28;20023;-71
2021/01/01 00:24:32;;;;;;;57.43;34.17;;;;;;;-2.22;94.57;94578.69;1026667;28;20019;-74
2021/01/01 00:25:03;;;;;;;56.57;34.67;;;;;;;-2.25;94.74;94574.75;1028013;28;20473;-70
2021/01/01 00:25:34;;;;;;;51.95;30.00;;;;;;;-2.24;94.94;94580.69;1030984;28;20025;-73
2021/01/01 00:26:11;;;;;;;50.50;32.13;;;;;;;-2.24;95.36;94576.34;1026888;28;20122;-74
2021/01/01 00:26:42;;;;;;;49.63;30.85;;;;;;;-2.35;95.40;94559.03;1033943;28;20080;-71
2021/01/01 00:27:13;;;;;;;52.63;29.23;;;;;;;-2.22;95.48;94569.19;1022379;29;20239;-73
2021/01/01 00:27:43;;;;;;;57.67;31.27;;;;;;;-2.23;95.39;94575.31;1029782;28;20077;-73
2021/01/01 00:28:14;;;;;;;57.60;31.80;;;;;;;-2.29;95.26;94560.75;1022218;28;20043;-69
2021/01/01 00:28:46;;;;;;;66.03;33.30;;;;;;;-2.25;95.13;94563.69;1033880;28;20603;-73
2021/01/01 00:29:16;;;;;;;55.10;30.85;;;;;;;-2.22;94.89;94569.19;1022288;28;20015;-73
2021/01/01 00:29:46;;;;;;;40.93;24.00;;;;;;;-2.27;94.79;94555.41;1022679;29;20063;-72
2021/01/01 00:30:18;;;;;;;37.37;23.60;;;;;;;-2.19;94.71;94573.91;1021653;28;20190;-74
2021/01/01 00:30:48;;;;;;;39.67;23.70;;;;;;;-2.24;95.02;94560.13;1028233;28;20684;-73
2021/01/01 00:31:20;;;;;;;36.87;22.47;;;;;;;-2.21;94.63;94559.72;1022272;29;20019;-72
2021/01/01 00:31:51;;;;;;;33.83;21.23;;;;;;;-2.13;94.80;94572.28;1028640;28;20102;-73
2021/01/01 00:32:21;;;;;;;36.77;20.30;;;;;;;-2.22;94.63;94556.34;1034717;28;20871;-73
2021/01/01 00:32:52;;;;;;;31.93;21.07;;;;;;;-2.10;94.81;94571.84;1022529;29;20020;-73
2021/01/01 00:33:22;;;;;;;33.03;20.47;;;;;;;-2.11;94.93;94566.91;1030165;28;20042;-73
2021/01/01 00:33:53;;;;;;;33.27;19.90;;;;;;;-2.18;94.48;94556.69;1034548;28;20157;-74
2021/01/01 00:34:23;;;;;;;32.90;20.27;;;;;;;-2.10;94.72;94571.84;1034688;28;20025;-73
2021/01/01 00:34:54;;;;;;;35.43;21.70;;;;;;;-2.10;94.71;94565.94;1033778;28;20010;-72
2021/01/01 00:35:24;;;;;;;34.13;21.83;;;;;;;-2.18;94.82;94560.06;1029206;28;20053;-72
2021/01/01 00:35:55;;;;;;;35.67;21.97;;;;;;;-2.10;94.44;94568.50;1029443;28;20014;-74
2021/01/01 00:36:25;;;;;;;37.07;23.63;;;;;;;-2.14;94.53;94566.34;1036694;28;20113;-74
2021/01/01 00:36:58;;;;;;;40.13;24.43;;;;;;;-2.11;94.15;94562.59;1021416;28;20593;-73
2021/01/01 00:37:29;;;;;;;39.05;22.25;;;;;;;-2.09;94.39;94568.28;1024366;28;20038;-74
2021/01/01 00:37:59;;;;;;;33.87;20.47;;;;;;;-2.07;94.29;94568.09;1029855;28;20018;-73
2021/01/01 00:38:30;;;;;;;32.83;21.13;;;;;;;-2.08;94.37;94561.34;1027740;28;20030;-74
2021/01/01 00:39:00;;;;;;;34.93;21.37;;;;;;;-2.07;94.29;94575.78;1037429;28;20540;-74
2021/01/01 00:39:31;;;;;;;33.60;20.97;;;;;;;-2.08;94.51;94566.50;1033239;28;20022;-75
2021/01/01 00:40:05;;;;;;;35.37;22.30;;;;;;;-2.19;94.52;94553.34;1028174;28;20490;-73
2021/01/01 00:40:36;;;;;;;36.33;23.05;;;;;;;-2.10;94.77;94576.22;1025548;28;20061;-74
2021/01/01 00:41:06;;;;;;;35.47;23.50;;;;;;;-2.19;94.84;94563.63;1026621;28;20525;-73
2021/01/01 00:41:37;;;;;;;34.37;22.73;;;;;;;-2.44;94.55;94522.56;1029897;28;20735;-74
2021/01/01 00:42:08;;;;;;;33.50;21.37;;;;;;;-2.08;94.51;94569.84;1029230;28;20033;-74
2021/01/01 00:42:38;;;;;;;30.60;20.40;;;;;;;-2.08;94.73;94569.06;1030482;28;20038;-73
2021/01/01 00:43:09;;;;;;;34.63;22.27;;;;;;;-2.08;94.50;94574.19;1034879;28;20018;-74
2021/01/01 00:43:39;;;;;;;31.20;21.80;;;;;;;-2.11;94.25;94560.00;1026115;28;20547;-74
2021/01/01 00:44:11;;;;;;;46.17;29.33;;;;;;;-2.06;94.37;94569.66;1038770;28;20112;-73
2021/01/01 00:44:41;;;;;;;57.30;36.75;;;;;;;-2.04;94.46;94565.09;1027917;28;20023;-74
2021/01/01 00:45:12;;;;;;;54.47;34.23;;;;;;;-2.12;94.37;94553.28;1025817;28;20544;-73
2021/01/01 00:45:42;;;;;;;48.83;30.30;;;;;;;-2.06;94.32;94564.50;1030079;28;20023;-73
2021/01/01 00:46:13;;;;;;;47.70;29.40;;;;;;;-2.10;94.04;94560.78;1022382;28;20069;-73
2021/01/01 00:46:43;;;;;;;42.77;26.93;;;;;;;-2.07;94.37;94565.50;1036649;28;20831;-73
2021/01/01 00:47:14;;;;;;;45.20;27.37;;;;;;;-2.14;94.41;94553.50;1042514;28;20060;-72
2021/01/01 00:47:48;;;;;;;42.73;27.27;;;;;;;-2.07;94.25;94566.28;1038131;28;20064;-73
2021/01/01 00:48:18;;;;;;;43.72;27.63;;;;;;;-2.08;94.31;94569.84;1034222;28;20014;-74
2021/01/01 00:48:49;;;;;;;41.20;27.10;;;;;;;-2.10;94.57;94565.94;1029977;28;20122;-75
2021/01/01 00:49:19;;;;;;;40.03;26.77;;;;;;;-2.07;94.83;94575.78;1038447;28;20104;-74
2021/01/01 00:49:50;;;;;;;42.30;25.40;;;;;;;-2.07;94.79;94566.28;1037862;28;20124;-74
2021/01/01 00:50:20;;;;;;;39.30;25.93;;;;;;;-2.17;94.49;94556.50;1033768;28;20750;-73
2021/01/01 00:50:51;;;;;;;28.67;18.77;;;;;;;-2.10;94.18;94556.44;1026313;28;20144;-75
2021/01/01 00:51:31;;;;;;;32.53;22.17;;;;;;;-2.02;94.49;94563.84;1034345;28;20038;-75
2021/01/01 00:52:05;;;;;;;30.45;19.67;;;;;;;-1.99;94.29;94567.78;1039763;28;20025;-74
2021/01/01 00:52:36;;;;;;;32.40;21.98;;;;;;;-2.00;93.95;94567.00;1038339;28;20108;-74
2021/01/01 00:53:07;;;;;;;32.30;22.15;;;;;;;-2.02;94.28;94563.84;1036330;28;20114;-74
2021/01/01 00:53:37;;;;;;;25.63;17.77;;;;;;;-2.00;94.01;94561.09;1041882;28;20071;-73
2021/01/01 00:54:07;;;;;;;25.30;17.90;;;;;;;-2.01;93.96;94564.63;1038680;28;20072;-73
2021/01/01 00:54:38;;;;;;;23.97;15.63;;;;;;;-1.99;94.03;94560.09;1030367;28;20022;-74
2021/01/01 00:55:11;;;;;;;21.53;13.83;;;;;;;-2.01;93.54;94559.50;1031984;28;20030;-74
2021/01/01 00:55:42;;;;;;;23.13;14.48;;;;;;;-1.99;93.20;94558.28;1037957;28;20425;-75
2021/01/01 00:56:18;;;;;;;21.23;14.20;;;;;;;-1.93;93.73;94561.81;1033753;28;20034;-74
2021/01/01 00:56:49;;;;;;;21.45;14.18;;;;;;;-1.92;93.39;94565.94;1030189;28;20034;-75
2021/01/01 00:57:19;;;;;;;18.67;12.37;;;;;;;-1.92;92.96;94563.38;1021721;28;20713;-73
2021/01/01 00:57:53;;;;;;;19.60;12.73;;;;;;;-1.98;92.80;94543.66;1031133;28;20030;-74
2021/01/01 00:58:24;;;;;;;19.63;12.88;;;;;;;-1.88;92.85;94559.38;1032134;28;20100;-73
2021/01/01 00:58:55;;;;;;;19.30;12.03;;;;;;;-1.99;92.60;94544.66;1036921;28;20689;-75
2021/01/01 00:59:28;;;;;;;21.13;13.10;;;;;;;-1.95;92.94;94558.66;1033410;28;20116;-74
2021/01/01 00:59:58;;;;;;;22.20;13.93;;;;;;;-1.93;92.92;94566.94;1030045;28;20030;-72
2021/01/01 01:00:29;;;;;;;21.37;14.53;;;;;;;-1.94;92.68;94568.72;1026758;28;20039;-74
2021/01/01 01:00:59;;;;;;;22.53;14.40;;;;;;;-1.98;92.98;94565.03;1038085;28;20061;-74
2021/01/01 01:01:29;;;;;;;21.73;13.63;;;;;;;-1.99;93.10;94568.56;1034379;28;20092;-75
2021/01/01 01:02:00;;;;;;;22.40;14.00;;;;;;;-2.02;93.04;94571.56;1029014;28;20030;-74
2021/01/01 01:02:30;;;;;;;24.00;15.30;;;;;;;-2.00;93.18;94572.16;1033923;28;20520;-74
2021/01/01 01:03:01;;;;;;;23.77;14.77;;;;;;;-2.02;93.47;94570.78;1031692;28;20439;-73
2021/01/01 01:03:31;;;;;;;22.53;14.93;;;;;;;-2.06;93.45;94573.00;1037568;28;20099;-74
2021/01/01 01:04:02;;;;;;;27.13;14.10;;;;;;;-2.09;93.41;94572.63;1042410;28;20044;-74
2021/01/01 01:04:32;;;;;;;23.20;14.30;;;;;;;-2.30;93.26;94543.00;1046767;28;20078;-73
2021/01/01 01:05:03;;;;;;;22.50;13.63;;;;;;;-2.12;93.44;94581.53;1036583;28;20025;-73
2021/01/01 01:05:34;;;;;;;21.43;12.97;;;;;;;-2.13;93.48;94580.75;1034412;28;20370;-74
2021/01/01 01:06:04;;;;;;;22.33;13.53;;;;;;;-2.67;93.46;94500.06;1030422;28;20113;-73
2021/01/01 01:06:35;;;;;;;23.80;14.60;;;;;;;-2.20;93.87;94572.34;1030638;28;20061;-74
2021/01/01 01:07:05;;;;;;;22.53;14.03;;;;;;;-2.22;93.94;94570.97;1030592;28;20089;-73
2021/01/01 01:07:36;;;;;;;17.17;12.87;;;;;;;-2.16;93.96;94585.53;1024933;28;20022;-73
2021/01/01 01:08:06;;;;;;;18.33;12.53;;;;;;;-2.20;93.87;94577.47;1026682;28;20051;-73
2021/01/01 01:08:37;;;;;;;22.03;13.67;;;;;;;-2.16;94.22;94581.19;1026240;28;20035;-74
2021/01/01 01:09:07;;;;;;;19.73;12.37;;;;;;;-2.17;94.36;94587.34;1026417;28;20030;-73
2021/01/01 01:09:38;;;;;;;19.70;12.47;;;;;;;-2.17;94.34;94582.19;1026478;28;20034;-73
2021/01/01 01:10:12;;;;;;;19.63;12.93;;;;;;;-2.21;94.41;94580.28;1034391;28;20045;-73
2021/01/01 01:10:44;;;;;;;19.35;12.52;;;;;;;-2.21;94.06;94564.84;1034428;28;20061;-73
2021/01/01 01:11:15;;;;;;;19.25;12.02;;;;;;;-2.16;94.13;94578.63;1030563;28;20030;-73
2021/01/01 01:11:45;;;;;;;19.60;12.68;;;;;;;-2.09;94.05;94591.41;1030182;28;20034;-73
2021/01/01 01:12:17;;;;;;;21.50;12.87;;;;;;;-2.08;94.06;94594.75;1026522;28;20027;-74
2021/01/01 01:12:47;;;;;;;18.83;12.25;;;;;;;-2.31;93.72;94555.06;1026490;28;20054;-73
2021/01/01 01:13:18;;;;;;;20.53;12.90;;;;;;;-2.13;94.06;94593.63;1030854;28;20031;-74
2021/01/01 01:13:49;;;;;;;17.87;12.57;;;;;;;-2.13;93.77;94593.63;1038513;28;20032;-74
2021/01/01 01:14:19;;;;;;;21.43;13.53;;;;;;;-2.35;94.12;94561.59;1030464;28;20525;-73
2021/01/01 01:14:50;;;;;;;20.77;13.23;;;;;;;-2.15;94.20;94590.50;1029505;28;20030;-74
2021/01/01 01:15:20;;;;;;;21.00;13.77;;;;;;;-2.16;94.52;94591.47;1031063;28;20614;-74
2021/01/01 01:15:50;;;;;;;24.73;14.13;;;;;;;-2.22;94.36;94594.88;1034216;28;20499;-74
2021/01/01 01:16:28;;;;;;;17.97;12.47;;;;;;;-2.20;94.33;94598.03;1033254;28;20026;-74
2021/01/01 01:16:59;;;;;;;21.50;13.98;;;;;;;-2.30;94.76;94582.31;1033685;28;20225;-74
2021/01/01 01:17:29;;;;;;;18.27;12.70;;;;;;;-2.18;94.59;94600.38;1034473;28;20021;-73
2021/01/01 01:18:00;;;;;;;20.27;13.13;;;;;;;-2.29;94.62;94576.16;1038473;28;20075;-73
2021/01/01 01:18:30;;;;;;;25.37;13.77;;;;;;;-2.29;94.53;94583.09;1022207;29;20051;-73
2021/01/01 01:19:01;;;;;;;20.13;13.03;;;;;;;-2.19;94.72;94599.59;1026183;28;20011;-74
2021/01/01 01:19:31;;;;;;;19.63;13.23;;;;;;;-2.22;94.76;94587.16;1035474;28;20293;-72
2021/01/01 01:20:02;;;;;;;21.20;13.70;;;;;;;-2.30;94.60;94578.97;1033492;28;20021;-74
2021/01/01 01:20:32;;;;;;;28.23;17.77;;;;;;;-2.21;94.61;94591.31;1036550;28;20020;-74
2021/01/01 01:21:03;;;;;;;25.20;15.13;;;;;;;-2.21;94.66;94583.63;1030132;28;20018;-73
2021/01/01 01:21:33;;;;;;;20.17;13.50;;;;;;;-2.22;94.76;94589.75;1032605;28;20026;-74
2021/01/01 01:22:04;;;;;;;21.20;13.37;;;;;;;-2.28;95.09;94585.47;1038464;28;20033;-74
2021/01/01 01:22:35;;;;;;;20.20;13.53;;;;;;;-2.30;95.29;94577.19;1034320;28;20014;-74
2021/01/01 01:23:05;;;;;;;21.57;14.03;;;;;;;-2.23;95.33;94588.16;1037103;28;20105;-74
2021/01/01 01:23:35;;;;;;;22.20;14.63;;;;;;;-2.32;95.50;94573.22;1029436;28;20390;-74
2021/01/01 01:24:06;;;;;;;22.37;14.67;;;;;;;-2.30;95.13;94584.09;1037666;28;20083;-75
2021/01/01 01:24:37;;;;;;;23.27;14.23;;;;;;;-2.34;95.40;94578.59;1038198;28;20009;-75
2021/01/01 01:25:07;;;;;;;22.60;14.30;;;;;;;-2.34;95.39;94573.47;1021193;28;20027;-74
2021/01/01 01:25:38;;;;;;;23.60;15.53;;;;;;;-2.32;95.36;94584.28;1034260;28;20117;-74
2021/01/01 01:26:08;;;;;;;22.53;14.23;;;;;;;-2.26;95.52;94587.81;1034361;28;20420;-75
2021/01/01 01:26:39;;;;;;;26.87;16.13;;;;;;;-2.24;95.63;94588.41;1030294;28;20073;-73
2021/01/01 01:27:09;;;;;;;22.23;14.77;;;;;;;-2.23;95.71;94593.31;1025663;28;20430;-73
2021/01/01 01:27:40;;;;;;;23.23;14.07;;;;;;;-2.24;95.78;94589.19;1026322;28;20029;-73
2021/01/01 01:28:10;;;;;;;25.40;15.63;;;;;;;-2.22;96.16;94591.53;1034523;28;20037;-74
2021/01/01 01:28:43;;;;;;;25.30;15.43;;;;;;;-2.22;96.05;94594.88;1034137;28;20025;-73
2021/01/01 01:29:14;;;;;;;22.60;15.23;;;;;;;-2.22;96.23;94592.31;1034413;28;20022;-73
2021/01/01 01:29:44;;;;;;;27.77;16.33;;;;;;;-2.25;96.12;94589.38;1020310;28;20036;-73
2021/01/01 01:30:15;;;;;;;27.00;16.57;;;;;;;-2.19;95.93;94598.81;1030002;28;20022;-74
2021/01/01 01:30:46;;;;;;;25.80;16.53;;;;;;;-2.25;95.68;94582.44;1032754;28;20030;-72
2021/01/01 01:31:17;;;;;;;23.73;15.50;;;;;;;-2.27;96.22;94581.88;1034344;28;20052;-75
2021/01/01 01:31:47;;;;;;;22.53;15.73;;;;;;;-2.19;96.10;94591.09;1029651;28;20054;-73
2021/01/01 01:32:18;;;;;;;24.83;16.13;;;;;;;-2.24;96.15;94581.47;1026592;28;20057;-73
2021/01/01 01:32:48;;;;;;;25.70;16.23;;;;;;;-2.18;96.27;94590.91;1026339;28;20029;-75
2021/01/01 01:33:18;;;;;;;26.87;16.50;;;;;;;-2.23;96.61;94583.03;1028928;28;20077;-74
2021/01/01 01:33:49;;;;;;;27.90;16.53;;;;;;;-2.23;96.33;94587.38;1029801;28;20058;-73
2021/01/01 01:34:19;;;;;;;23.00;14.77;;;;;;;-2.44;96.15;94550.81;1038193;28;20025;-74
2021/01/01 01:34:50;;;;;;;26.53;15.07;;;;;;;-2.27;95.71;94581.09;1029743;28;20417;-74
2021/01/01 01:35:21;;;;;;;27.37;16.57;;;;;;;-2.27;96.14;94578.53;1028447;28;20088;-72
2021/01/01 01:35:51;;;;;;;24.53;15.70;;;;;;;-2.21;96.09;94595.69;1029758;28;20033;-74
2021/01/01 01:36:22;;;;;;;23.10;15.23;;;;;;;-2.32;96.30;94576.59;1026661;28;20787;-74
2021/01/01 01:36:52;;;;;;;26.17;16.77;;;;;;;-2.48;96.55;94559.13;1038275;28;20026;-74
2021/01/01 01:37:23;;;;;;;22.47;15.13;;;;;;;-2.22;96.31;94594.88;1034354;28;20029;-73
2021/01/01 01:37:56;;;;;;;25.67;15.27;;;;;;;-2.45;96.40;94551.81;1021904;29;20573;-73
2021/01/01 01:38:27;;;;;;;26.37;15.47;;;;;;;-2.26;96.55;94577.53;1022668;28;20090;-74
2021/01/01 01:38:58;;;;;;;28.08;16.08;;;;;;;-2.22;96.72;94594.09;1030596;28;20037;-73
2021/01/01 01:39:28;;;;;;;22.93;15.50;;;;;;;-2.26;96.51;94587.81;1032696;28;20030;-73
2021/01/01 01:39:58;;;;;;;21.23;14.33;;;;;;;-2.22;96.55;94597.44;1030111;28;20030;-74
2021/01/01 01:40:29;;;;;;;23.37;15.17;;;;;;;-2.34;96.42;94581.16;1026457;28;20073;-74
2021/01/01 01:41:00;;;;;;;24.07;14.47;;;;;;;-2.23;96.19;94593.31;1031725;28;20386;-74
2021/01/01 01:41:30;;;;;;;23.03;15.60;;;;;;;-2.22;96.48;94587.16;1030554;28;20065;-73
2021/01/01 01:42:01;;;;;;;25.93;15.57;;;;;;;-2.21;96.46;94591.31;1034011;28;20041;-75
2021/01/01 01:42:31;;;;;;;24.83;15.67;;;;;;;-2.28;96.27;94575.19;1038600;28;20125;-74
2021/01/01 01:43:02;;;;;;;25.20;15.73;;;;;;;-2.18;96.00;94583.19;1038649;28;20056;-74
2021/01/01 01:43:32;;;;;;;22.57;14.50;;;;;;;-2.21;95.82;94581.06;1034494;28;20131;-73
2021/01/01 01:44:03;;;;;;;22.50;14.73;;;;;;;-2.15;95.86;94593.06;1029945;28;20173;-73
2021/01/01 01:44:33;;;;;;;23.97;15.50;;;;;;;-2.14;96.01;94586.91;1026654;28;20065;-76
2021/01/01 01:45:06;;;;;;;25.20;15.97;;;;;;;-2.28;95.94;94564.91;1037490;28;20116;-73
2021/01/01 01:45:36;;;;;;;24.27;15.07;;;;;;;-2.16;95.95;94588.91;1034532;28;20114;-74
2021/01/01 01:46:07;;;;;;;21.93;14.90;;;;;;;-2.19;96.27;94586.75;1030046;28;20162;-74
2021/01/01 01:46:41;;;;;;;22.80;15.33;;;;;;;-2.16;96.08;94581.19;1030473;28;20049;-74
2021/01/01 01:47:14;;;;;;;24.13;16.00;;;;;;;-2.17;95.92;94592.47;1034630;28;20173;-74
2021/01/01 01:47:45;;;;;;;20.63;13.38;;;;;;;-2.17;96.32;94586.56;1030427;28;20040;-74
2021/01/01 01:48:19;;;;;;;22.35;14.77;;;;;;;-2.19;96.29;94584.19;1030620;28;20512;-72
2021/01/01 01:48:51;;;;;;;26.40;16.63;;;;;;;-2.18;96.55;94588.34;1032119;28;20072;-74
2021/01/01 01:49:22;;;;;;;25.05;15.40;;;;;;;-2.17;96.87;94587.34;1035487;28;20032;-74
2021/01/01 01:49:52;;;;;;;23.53;15.13;;;;;;;-2.26;96.75;94578.31;1034933;28;20025;-75
2021/01/01 01:50:23;;;;;;;23.77;14.47;;;;;;;-2.27;96.42;94575.97;1024593;28;20051;-74
2021/01/01 01:50:54;;;;;;;23.17;14.30;;;;;;;-2.17;96.45;94587.34;1030421;28;20045;-73
2021/01/01 01:51:24;;;;;;;24.63;15.53;;;;;;;-2.24;96.26;94581.47;1030848;28;20076;-73
2021/01/01 01:51:55;;;;;;;23.07;15.00;;;;;;;-2.19;96.30;94585.97;1030329;28;20446;-74
2021/01/01 01:52:25;;;;;;;23.73;15.43;;;;;;;-2.18;96.55;94590.91;1022551;28;20094;-73
2021/01/01 01:52:56;;;;;;;23.30;15.17;;;;;;;-2.15;96.84;94589.69;1037298;28;20090;-74
2021/01/01 01:53:26;;;;;;;22.40;14.43;;;;;;;-2.20;96.79;94585.19;1037446;28;20116;-75
2021/01/01 01:53:57;;;;;;;22.23;14.77;;;;;;;-2.26;96.94;94578.31;1027408;28;20021;-73
2021/01/01 01:54:28;;;;;;;22.23;14.33;;;;;;;-2.17;96.84;94587.34;1026473;28;20038;-73
2021/01/01 01:54:59;;;;;;;21.45;14.60;;;;;;;-2.26;96.63;94575.75;1033812;28;20087;-74
2021/01/01 01:55:29;;;;;;;23.07;15.37;;;;;;;-2.13;96.64;94592.84;1030343;28;20093;-72
2021/01/01 01:56:00;;;;;;;22.57;14.77;;;;;;;-2.14;96.88;94594.63;1030255;28;20876;-75
2021/01/01 01:56:30;;;;;;;23.43;13.90;;;;;;;-2.16;96.64;94591.47;1022293;29;20060;-74
2021/01/01 01:57:01;;;;;;;24.97;15.73;;;;;;;-2.18;96.71;94595.22;1021456;28;20015;-72
2021/01/01 01:57:31;;;;;;;24.13;15.40;;;;;;;-2.26;96.54;94575.75;1029895;28;20018;-74
2021/01/01 01:58:02;;;;;;;23.27;14.67;;;;;;;-2.21;96.45;94581.06;1022798;28;20110;-73
2021/01/01 01:58:33;;;;;;;22.87;15.37;;;;;;;-2.24;96.67;94576.34;1030126;28;20481;-75
2021/01/01 01:59:03;;;;;;;25.80;16.37;;;;;;;-2.23;96.30;94577.91;1030305;28;20473;-74
2021/01/01 01:59:34;;;;;;;25.40;16.20;;;;;;;-2.19;96.19;94581.59;1035025;28;20024;-75
2021/01/01 02:00:13;;;;;;;23.47;15.77;;;;;;;-2.19;96.49;94586.75;1030722;28;20496;-73
2021/01/01 02:01:04;;;;;;;24.92;16.33;;;;;;;-2.39;96.33;94555.31;1026628;28;20026;-75
2021/01/01 02:01:34;;;;;;;27.50;16.98;;;;;;;-2.15;95.87;94590.50;1029590;28;20037;-75
2021/01/01 02:02:04;;;;;;;22.40;15.90;;;;;;;-2.15;95.97;94587.91;1038828;28;20037;-75
2021/01/01 02:02:35;;;;;;;22.77;14.30;;;;;;;-2.14;95.78;94591.28;1038519;28;20029;-75
2021/01/01 02:03:05;;;;;;;23.30;15.53;;;;;;;-2.15;95.94;94590.50;1034620;28;20022;-73
2021/01/01 02:03:36;;;;;;;24.40;15.53;;;;;;;-2.15;96.07;94598.19;1026820;28;20015;-76
2021/01/01 02:04:06;;;;;;;26.10;16.40;;;;;;;-2.17;95.99;94589.13;1026377;28;20062;-74
2021/01/01 02:04:37;;;;;;;25.33;15.40;;;;;;;-2.17;96.20;94594.25;1022373;29;20387;-73
2021/01/01 02:05:09;;;;;;;23.50;15.80;;;;;;;-2.19;95.92;94594.44;1027230;28;20010;-74
2021/01/01 02:05:39;;;;;;;24.67;15.93;;;;;;;-2.23;95.79;94588.16;1026867;28;20114;-74
2021/01/01 02:06:10;;;;;;;25.30;15.83;;;;;;;-2.19;95.82;94593.66;1034648;28;20393;-74
2021/01/01 02:06:43;;;;;;;24.70;16.43;;;;;;;-2.28;95.77;94585.47;1034264;28;20014;-73
2021/01/01 02:07:14;;;;;;;22.70;15.38;;;;;;;-2.23;96.25;94593.31;1031697;28;20010;-74
2021/01/01 02:07:44;;;;;;;23.27;15.37;;;;;;;-2.24;95.86;94596.88;1039170;28;20025;-77
2021/01/01 02:08:15;;;;;;;22.73;16.03;;;;;;;-2.24;95.77;94598.69;1030514;28;20014;-74
2021/01/01 02:08:45;;;;;;;25.43;15.33;;;;;;;-2.24;96.12;94596.88;1030937;28;20543;-73
2021/01/01 02:09:16;;;;;;;20.23;14.10;;;;;;;-2.23;95.82;94595.88;1030435;28;20049;-74
2021/01/01 02:09:46;;;;;;;24.83;14.77;;;;;;;-2.21;95.64;94596.47;1030684;28;20030;-73
2021/01/01 02:10:19;;;;;;;21.13;13.63;;;;;;;-2.22;95.52;94597.44;1018866;29;20019;-74
2021/01/01 02:10:54;;;;;;;21.25;14.02;;;;;;;-2.23;95.65;94603.59;1031553;28;20077;-73
2021/01/01 02:11:24;;;;;;;22.30;14.65;;;;;;;-2.22;95.41;94601.81;1034475;28;20022;-73
2021/01/01 02:11:54;;;;;;;24.43;14.50;;;;;;;-2.25;95.71;94595.28;1031635;28;20018;-73
2021/01/01 02:12:25;;;;;;;20.37;14.43;;;;;;;-2.24;95.74;94599.44;1033826;28;20025;-75
2021/01/01 02:12:55;;;;;;;20.60;14.30;;;;;;;-2.23;95.74;94598.44;1033882;28;20032;-73
2021/01/01 02:13:26;;;;;;;26.37;14.67;;;;;;;-2.25;95.82;94595.28;1034573;28;20025;-73
2021/01/01 02:13:57;;;;;;;19.80;13.20;;;;;;;-2.25;95.24;94594.50;1030376;28;20363;-73
2021/01/01 02:14:27;;;;;;;20.37;12.73;;;;;;;-2.34;95.30;94583.72;1022733;28;20023;-74
2021/01/01 02:14:58;;;;;;;22.40;13.60;;;;;;;-2.26;95.15;94593.72;1029940;28;20030;-72
2021/01/01 02:15:29;;;;;;;19.30;13.60;;;;;;;-2.36;95.33;94578.00;1030204;28;20026;-73
2021/01/01 02:15:59;;;;;;;19.65;13.88;;;;;;;-2.29;95.07;94585.66;1030585;28;20097;-72
2021/01/01 02:16:30;;;;;;;22.70;14.20;;;;;;;-2.25;95.04;94595.28;1022806;28;20027;-74
2021/01/01 02:17:00;;;;;;;21.30;14.93;;;;;;;-2.25;95.16;94595.28;1026940;28;20419;-76
2021/01/01 02:17:31;;;;;;;27.67;18.23;;;;;;;-2.33;95.01;94577.59;1030191;28;20034;-73
2021/01/01 02:18:01;;;;;;;26.33;16.73;;;;;;;-2.22;94.81;94588.94;1035423;28;20244;-74
2021/01/01 02:18:38;;;;;;;28.37;18.07;;;;;;;-2.29;94.65;94575.38;1034730;28;20053;-73
2021/01/01 02:19:15;;;;;;;30.67;19.30;;;;;;;-2.22;94.60;94586.38;1034697;28;20026;-72
2021/01/01 02:19:45;;;;;;;28.85;16.60;;;;;;;-2.25;94.66;94587.59;1032395;28;20091;-73
2021/01/01 02:20:16;;;;;;;27.40;17.27;;;;;;;-2.23;94.87;94595.88;1032524;28;20532;-74
2021/01/01 02:20:46;;;;;;;23.00;15.10;;;;;;;-2.25;95.09;94590.16;1033199;28;20419;-72
2021/01/01 02:21:17;;;;;;;26.13;15.83;;;;;;;-2.33;95.25;94572.44;1034655;28;20107;-74
2021/01/01 02:21:48;;;;;;;21.20;13.97;;;;;;;-2.31;95.09;94585.06;1034843;28;20420;-73
2021/01/01 02:22:19;;;;;;;19.80;12.85;;;;;;;-2.29;95.27;94583.88;1038896;28;20038;-73
2021/01/01 02:22:49;;;;;;;19.50;12.70;;;;;;;-2.37;94.82;94572.09;1034667;28;20040;-74